createdAt,value
2017-01-13T00:00:23.135Z,1010.69
2017-01-13T00:01:23.118Z,1010.72
2017-01-13T00:02:23.107Z,1010.7
2017-01-13T00:03:23.093Z,1010.63
2017-01-13T00:04:23.080Z,1010.61
2017-01-13T00:05:23.068Z,1010.54
2017-01-13T00:06:23.055Z,1010.43
2017-01-13T00:07:23.043Z,1010.41
2017-01-13T00:08:23.030Z,1010.35
2017-01-13T00:09:23.017Z,1010.36
2017-01-13T00:10:23.005Z,1010.28
2017-01-13T00:11:22.993Z,1010.19
2017-01-13T00:12:22.982Z,1010.19
2017-01-13T00:13:22.967Z,1010.17
2017-01-13T00:14:22.954Z,1010.18
2017-01-13T00:15:22.943Z,1010.22
2017-01-13T00:16:22.929Z,1010.24
2017-01-13T00:17:22.917Z,1010.2
2017-01-13T00:18:22.905Z,1010.17
2017-01-13T00:19:22.891Z,1010.08
2017-01-13T00:20:22.879Z,1010.05
2017-01-13T00:21:22.868Z,1009.96
2017-01-13T00:22:22.855Z,1009.95
2017-01-13T00:23:22.841Z,1009.94
2017-01-13T00:24:22.829Z,1009.91
2017-01-13T00:25:22.816Z,1009.93
2017-01-13T00:26:22.804Z,1009.86
2017-01-13T00:27:22.791Z,1009.85
2017-01-13T00:28:22.778Z,1009.82
2017-01-13T00:29:22.766Z,1009.79
2017-01-13T00:30:22.754Z,1009.74
2017-01-13T00:31:22.740Z,1009.76
2017-01-13T00:32:22.728Z,1009.76
2017-01-13T00:33:22.716Z,1009.76
2017-01-13T00:34:22.702Z,1009.7
2017-01-13T00:35:22.690Z,1009.71
2017-01-13T00:36:22.678Z,1009.73
2017-01-13T00:37:22.665Z,1009.75
2017-01-13T00:38:22.652Z,1009.78
2017-01-13T00:39:22.639Z,1009.77
2017-01-13T00:40:22.627Z,1009.77
2017-01-13T00:41:22.613Z,1009.76
2017-01-13T00:42:22.601Z,1009.79
2017-01-13T00:43:22.589Z,1009.81
2017-01-13T00:44:22.577Z,1009.79
2017-01-13T00:45:22.563Z,1009.75
2017-01-13T00:46:22.550Z,1009.69
2017-01-13T00:47:22.540Z,1009.64
2017-01-13T00:48:22.526Z,1009.59
2017-01-13T00:49:22.512Z,1009.54
2017-01-13T00:50:22.500Z,1009.48
2017-01-13T00:51:22.487Z,1009.45
2017-01-13T00:52:22.474Z,1009.4
2017-01-13T00:53:22.461Z,1009.4
2017-01-13T00:54:22.449Z,1009.4
2017-01-13T00:55:22.436Z,1009.35
2017-01-13T00:56:22.426Z,1009.32
2017-01-13T00:57:22.411Z,1009.29
2017-01-13T00:58:22.398Z,1009.24
2017-01-13T00:59:22.386Z,1009.22
2017-01-13T01:00:22.372Z,1009.14
2017-01-13T01:01:22.360Z,1009.2
2017-01-13T01:02:22.347Z,1009.14
2017-01-13T01:03:22.335Z,1009.16
2017-01-13T01:04:22.321Z,1009.12
2017-01-13T01:05:22.309Z,1009.13
2017-01-13T01:06:22.296Z,1009.1
2017-01-13T01:07:22.283Z,1009.08
2017-01-13T01:08:22.270Z,1009.12
2017-01-13T01:09:22.258Z,1009.08
2017-01-13T01:10:22.245Z,1009.09
2017-01-13T01:11:22.232Z,1009.02
2017-01-13T01:12:22.220Z,1009
2017-01-13T01:13:22.212Z,1008.94
2017-01-13T01:14:22.195Z,1008.9
2017-01-13T01:15:22.181Z,1008.83
2017-01-13T01:16:22.170Z,1008.75
2017-01-13T01:17:22.156Z,1008.7
2017-01-13T01:18:22.142Z,1008.69
2017-01-13T01:19:22.130Z,1008.65
2017-01-13T01:20:22.117Z,1008.62
2017-01-13T01:21:22.105Z,1008.55
2017-01-13T01:22:22.091Z,1008.54
2017-01-13T01:23:22.081Z,1008.54
2017-01-13T01:24:22.066Z,1008.53
2017-01-13T01:25:22.053Z,1008.55
2017-01-13T01:26:22.040Z,1008.54
2017-01-13T01:27:22.027Z,1008.52
2017-01-13T01:28:22.015Z,1008.47
2017-01-13T01:29:22.002Z,1008.45
2017-01-13T01:30:21.990Z,1008.45
2017-01-13T01:31:21.977Z,1008.44
2017-01-13T01:32:21.963Z,1008.39
2017-01-13T01:33:21.951Z,1008.38
2017-01-13T01:34:21.939Z,1008.38
2017-01-13T01:35:21.927Z,1008.43
2017-01-13T01:36:21.912Z,1008.35
2017-01-13T01:37:21.899Z,1008.27
2017-01-13T01:38:21.887Z,1008.28
2017-01-13T01:39:21.874Z,1008.21
2017-01-13T01:40:21.861Z,1008.21
2017-01-13T01:41:21.848Z,1008.22
2017-01-13T01:42:21.836Z,1008.21
2017-01-13T01:43:21.822Z,1008.17
2017-01-13T01:44:21.809Z,1008.2
2017-01-13T01:45:21.797Z,1008.13
2017-01-13T01:46:21.784Z,1008.12
2017-01-13T01:47:21.772Z,1008.07
2017-01-13T01:48:21.758Z,1008.02
2017-01-13T01:49:21.745Z,1008.01
2017-01-13T01:50:21.732Z,1007.93
2017-01-13T01:51:21.718Z,1007.95
2017-01-13T01:52:21.706Z,1007.93
2017-01-13T01:53:21.693Z,1007.85
2017-01-13T01:54:21.679Z,1007.88
2017-01-13T01:55:21.667Z,1007.81
2017-01-13T01:56:21.653Z,1007.79
2017-01-13T01:57:21.641Z,1007.75
2017-01-13T01:58:21.627Z,1007.72
2017-01-13T01:59:21.614Z,1007.67
2017-01-13T02:00:21.602Z,1007.59
2017-01-13T02:01:21.589Z,1007.51
2017-01-13T02:02:21.575Z,1007.48
2017-01-13T02:03:21.562Z,1007.41
2017-01-13T02:04:21.559Z,1007.38
2017-01-13T02:05:21.535Z,1007.28
2017-01-13T02:06:21.522Z,1007.23
2017-01-13T02:07:21.511Z,1007.18
2017-01-13T02:08:21.497Z,1007.15
2017-01-13T02:09:21.483Z,1007.15
2017-01-13T02:10:21.470Z,1007.14
2017-01-13T02:11:21.457Z,1007.12
2017-01-13T02:12:21.444Z,1007.09
2017-01-13T02:13:21.434Z,1007.02
2017-01-13T02:14:21.417Z,1006.99
2017-01-13T02:15:21.405Z,1006.92
2017-01-13T02:16:21.391Z,1006.84
2017-01-13T02:17:21.379Z,1006.81
2017-01-13T02:18:21.365Z,1006.77
2017-01-13T02:19:21.354Z,1006.75
2017-01-13T02:20:21.338Z,1006.7
2017-01-13T02:21:21.328Z,1006.68
2017-01-13T02:22:21.312Z,1006.63
2017-01-13T02:23:21.299Z,1006.64
2017-01-13T02:24:21.286Z,1006.53
2017-01-13T02:25:21.272Z,1006.46
2017-01-13T02:26:21.259Z,1006.37
2017-01-13T02:27:21.245Z,1006.35
2017-01-13T02:28:21.233Z,1006.21
2017-01-13T02:29:21.220Z,1006.16
2017-01-13T02:30:21.208Z,1006.19
2017-01-13T02:31:21.193Z,1006.21
2017-01-13T02:32:21.179Z,1006.17
2017-01-13T02:33:21.167Z,1006.18
2017-01-13T02:34:21.154Z,1006.18
2017-01-13T02:35:21.140Z,1006.19
2017-01-13T02:36:21.127Z,1006.17
2017-01-13T02:37:21.115Z,1006.1
2017-01-13T02:38:21.100Z,1006.12
2017-01-13T02:39:21.087Z,1005.99
2017-01-13T02:40:21.077Z,1005.96
2017-01-13T02:41:21.061Z,1005.87
2017-01-13T02:42:21.047Z,1005.78
2017-01-13T02:43:21.034Z,1005.71
2017-01-13T02:44:21.021Z,1005.64
2017-01-13T02:45:21.010Z,1005.52
2017-01-13T02:46:20.994Z,1005.54
2017-01-13T02:47:20.981Z,1005.52
2017-01-13T02:48:20.968Z,1005.43
2017-01-13T02:49:20.955Z,1005.38
2017-01-13T02:50:20.941Z,1005.33
2017-01-13T02:51:20.971Z,1005.32
2017-01-13T02:52:20.914Z,1005.28
2017-01-13T02:53:20.900Z,1005.29
2017-01-13T02:54:20.888Z,1005.31
2017-01-13T02:55:20.875Z,1005.18
2017-01-13T02:56:20.863Z,1005.08
2017-01-13T02:57:20.848Z,1005.21
2017-01-13T02:58:20.835Z,1005.19
2017-01-13T02:59:20.821Z,1005.21
2017-01-13T03:00:20.808Z,1005.16
2017-01-13T03:01:20.795Z,1005.13
2017-01-13T03:02:20.781Z,1005.07
2017-01-13T03:03:20.768Z,1005
2017-01-13T03:04:20.754Z,1004.99
2017-01-13T03:05:20.741Z,1004.91
2017-01-13T03:06:20.728Z,1004.91
2017-01-13T03:07:20.715Z,1004.87
2017-01-13T03:08:20.702Z,1004.79
2017-01-13T03:09:20.689Z,1004.78
2017-01-13T03:10:20.676Z,1004.74
2017-01-13T03:11:20.662Z,1004.74
2017-01-13T03:12:20.649Z,1004.72
2017-01-13T03:13:20.635Z,1004.78
2017-01-13T03:14:20.622Z,1004.75
2017-01-13T03:15:20.608Z,1004.71
2017-01-13T03:16:20.595Z,1004.68
2017-01-13T03:17:20.582Z,1004.69
2017-01-13T03:18:20.567Z,1004.66
2017-01-13T03:19:20.554Z,1004.6
2017-01-13T03:20:20.541Z,1004.55
2017-01-13T03:21:20.528Z,1004.5
2017-01-13T03:22:20.513Z,1004.43
2017-01-13T03:23:20.503Z,1004.48
2017-01-13T03:24:20.487Z,1004.45
2017-01-13T03:25:20.474Z,1004.45
2017-01-13T03:26:20.461Z,1004.38
2017-01-13T03:27:20.446Z,1004.4
2017-01-13T03:28:20.435Z,1004.35
2017-01-13T03:29:20.419Z,1004.33
2017-01-13T03:30:20.406Z,1004.26
2017-01-13T03:31:20.392Z,1004.27
2017-01-13T03:32:20.379Z,1004.29
2017-01-13T03:33:20.364Z,1004.31
2017-01-13T03:34:20.351Z,1004.21
2017-01-13T03:35:20.338Z,1004.23
2017-01-13T03:36:20.324Z,1004.24
2017-01-13T03:37:20.309Z,1004.24
2017-01-13T03:38:20.297Z,1004.22
2017-01-13T03:39:20.283Z,1004.24
2017-01-13T03:40:20.269Z,1004.18
2017-01-13T03:41:20.255Z,1004.25
2017-01-13T03:42:20.243Z,1004.16
2017-01-13T03:43:20.228Z,1004.17
2017-01-13T03:44:20.214Z,1004.1
2017-01-13T03:45:20.201Z,1004.04
2017-01-13T03:46:20.187Z,1004.04
2017-01-13T03:47:20.173Z,1004.03
2017-01-13T03:48:20.158Z,1004.17
2017-01-13T03:49:20.145Z,1004.17
2017-01-13T03:50:20.133Z,1004.17
2017-01-13T03:51:20.117Z,1004.23
2017-01-13T03:52:20.104Z,1004.19
2017-01-13T03:53:20.089Z,1004.12
2017-01-13T03:54:20.076Z,1004.1
2017-01-13T03:55:20.062Z,1003.98
2017-01-13T03:56:20.047Z,1003.92
2017-01-13T03:57:20.034Z,1003.85
2017-01-13T03:58:20.020Z,1003.83
2017-01-13T03:59:20.005Z,1003.79
2017-01-13T04:00:19.992Z,1003.72
2017-01-13T04:01:19.978Z,1003.72
2017-01-13T04:02:19.963Z,1003.71
2017-01-13T04:03:19.951Z,1003.63
2017-01-13T04:04:19.936Z,1003.51
2017-01-13T04:05:19.922Z,1003.45
2017-01-13T04:06:19.907Z,1003.43
2017-01-13T04:07:19.893Z,1003.38
2017-01-13T04:08:19.879Z,1003.27
2017-01-13T04:09:19.866Z,1003.27
2017-01-13T04:10:19.851Z,1003.21
2017-01-13T04:11:19.837Z,1003.15
2017-01-13T04:12:19.823Z,1003.14
2017-01-13T04:13:19.808Z,1003.02
2017-01-13T04:14:19.795Z,1002.97
2017-01-13T04:15:19.781Z,1002.93
2017-01-13T04:16:19.767Z,1002.93
2017-01-13T04:17:19.752Z,1002.91
2017-01-13T04:18:19.739Z,1002.86
2017-01-13T04:19:19.725Z,1002.83
2017-01-13T04:20:19.712Z,1002.77
2017-01-13T04:21:19.696Z,1002.65
2017-01-13T04:22:19.682Z,1002.62
2017-01-13T04:23:19.668Z,1002.6
2017-01-13T04:24:19.654Z,1002.5
2017-01-13T04:25:19.640Z,1002.53
2017-01-13T04:26:19.627Z,1002.54
2017-01-13T04:27:19.613Z,1002.48
2017-01-13T04:28:19.598Z,1002.55
2017-01-13T04:29:19.584Z,1002.58
2017-01-13T04:30:19.571Z,1002.57
2017-01-13T04:31:19.557Z,1002.63
2017-01-13T04:32:19.542Z,1002.56
2017-01-13T04:33:19.529Z,1002.57
2017-01-13T04:34:19.515Z,1002.56
2017-01-13T04:35:19.500Z,1002.6
2017-01-13T04:36:19.486Z,1002.6
2017-01-13T04:37:19.472Z,1002.58
2017-01-13T04:38:19.459Z,1002.58
2017-01-13T04:39:19.444Z,1002.57
2017-01-13T04:40:19.430Z,1002.52
2017-01-13T04:41:19.417Z,1002.54
2017-01-13T04:42:19.403Z,1002.63
2017-01-13T04:43:19.389Z,1002.65
2017-01-13T04:44:19.375Z,1002.63
2017-01-13T04:45:19.362Z,1002.65
2017-01-13T04:46:19.347Z,1002.59
2017-01-13T04:47:19.333Z,1002.48
2017-01-13T04:48:19.319Z,1002.39
2017-01-13T04:49:19.311Z,1002.35
2017-01-13T04:50:19.291Z,1002.34
2017-01-13T04:51:19.277Z,1002.32
2017-01-13T04:52:19.265Z,1002.23
2017-01-13T04:53:19.249Z,1002.2
2017-01-13T04:54:19.235Z,1002.18
2017-01-13T04:55:19.221Z,1002.11
2017-01-13T04:56:19.207Z,1002.04
2017-01-13T04:57:19.192Z,1002
2017-01-13T04:58:19.178Z,1001.95
2017-01-13T04:59:19.165Z,1001.93
2017-01-13T05:00:19.150Z,1001.84
2017-01-13T05:01:19.137Z,1001.94
2017-01-13T05:02:19.122Z,1001.9
2017-01-13T05:03:19.108Z,1001.84
2017-01-13T05:04:19.093Z,1001.83
2017-01-13T05:05:19.079Z,1001.8
2017-01-13T05:06:19.065Z,1001.81
2017-01-13T05:07:19.051Z,1001.76
2017-01-13T05:08:19.037Z,1001.8
2017-01-13T05:09:19.023Z,1001.72
2017-01-13T05:10:19.009Z,1001.66
2017-01-13T05:11:18.995Z,1001.62
2017-01-13T05:12:18.984Z,1001.63
2017-01-13T05:13:18.967Z,1001.55
2017-01-13T05:14:18.953Z,1001.55
2017-01-13T05:15:18.938Z,1001.5
2017-01-13T05:16:18.925Z,1001.47
2017-01-13T05:17:18.911Z,1001.54
2017-01-13T05:18:18.897Z,1001.56
2017-01-13T05:19:18.883Z,1001.45
2017-01-13T05:20:18.869Z,1001.25
2017-01-13T05:21:18.856Z,1001.06
2017-01-13T05:22:18.842Z,1001.19
2017-01-13T05:23:18.827Z,1001.41
2017-01-13T05:24:18.814Z,1001.5
2017-01-13T05:25:18.800Z,1001.52
2017-01-13T05:26:18.786Z,1001.51
2017-01-13T05:27:18.773Z,1001.55
2017-01-13T05:28:18.759Z,1001.5
2017-01-13T05:29:18.746Z,1001.46
2017-01-13T05:30:18.731Z,1001.31
2017-01-13T05:31:18.718Z,1001.23
2017-01-13T05:32:18.704Z,1001.19
2017-01-13T05:33:18.691Z,1001.23
2017-01-13T05:34:18.677Z,1001.19
2017-01-13T05:35:18.663Z,1001.16
2017-01-13T05:36:18.650Z,1001.1
2017-01-13T05:37:18.635Z,1001.07
2017-01-13T05:38:18.622Z,1001.09
2017-01-13T05:39:18.608Z,1001.07
2017-01-13T05:40:18.595Z,1001
2017-01-13T05:41:18.580Z,1000.96
2017-01-13T05:42:18.567Z,1000.94
2017-01-13T05:43:18.554Z,1000.96
2017-01-13T05:44:18.540Z,1000.93
2017-01-13T05:45:18.526Z,1000.85
2017-01-13T05:46:18.513Z,1000.89
2017-01-13T05:47:18.499Z,1000.82
2017-01-13T05:48:18.485Z,1000.85
2017-01-13T05:49:18.472Z,1000.81
2017-01-13T05:50:18.466Z,1000.84
2017-01-13T05:51:18.445Z,1000.8
2017-01-13T05:52:18.431Z,1000.84
2017-01-13T05:53:18.418Z,1000.75
2017-01-13T05:54:18.404Z,1000.75
2017-01-13T05:55:18.391Z,1000.75
2017-01-13T05:56:18.377Z,1000.71
2017-01-13T05:57:18.363Z,1000.74
2017-01-13T05:58:18.350Z,1000.74
2017-01-13T05:59:18.336Z,1000.76
2017-01-13T06:00:18.323Z,1000.75
2017-01-13T06:01:18.310Z,1000.69
2017-01-13T06:02:18.296Z,1000.71
2017-01-13T06:03:18.282Z,1000.74
2017-01-13T06:04:18.269Z,1000.7
2017-01-13T06:05:18.256Z,1000.65
2017-01-13T06:06:18.243Z,1000.6
2017-01-13T06:07:18.228Z,1000.58
2017-01-13T06:08:18.215Z,1000.57
2017-01-13T06:09:18.202Z,1000.53
2017-01-13T06:10:18.188Z,1000.47
2017-01-13T06:11:18.175Z,1000.45
2017-01-13T06:12:18.162Z,1000.42
2017-01-13T06:13:18.149Z,1000.37
2017-01-13T06:14:18.135Z,1000.32
2017-01-13T06:15:18.121Z,1000.31
2017-01-13T06:16:18.108Z,1000.3
2017-01-13T06:17:18.096Z,1000.25
2017-01-13T06:18:18.082Z,1000.25
2017-01-13T06:19:18.069Z,1000.23
2017-01-13T06:20:18.056Z,1000.19
2017-01-13T06:21:18.042Z,1000.16
2017-01-13T06:22:18.029Z,1000.22
2017-01-13T06:23:18.016Z,1000.2
2017-01-13T06:24:18.004Z,1000.28
2017-01-13T06:25:17.989Z,1000.32
2017-01-13T06:26:17.976Z,1000.27
2017-01-13T06:27:17.963Z,1000.2
2017-01-13T06:28:17.949Z,1000.19
2017-01-13T06:29:17.936Z,1000.17
2017-01-13T06:30:17.923Z,1000.14
2017-01-13T06:31:17.910Z,1000.18
2017-01-13T06:32:17.896Z,1000.15
2017-01-13T06:33:17.883Z,1000.18
2017-01-13T06:34:17.870Z,1000.16
2017-01-13T06:35:17.856Z,1000.1
2017-01-13T06:36:17.842Z,1000.15
2017-01-13T06:37:17.829Z,1000.12
2017-01-13T06:38:17.816Z,1000.04
2017-01-13T06:39:17.802Z,999.98
2017-01-13T06:40:17.789Z,1000.01
2017-01-13T06:41:17.776Z,1000
2017-01-13T06:42:17.764Z,1000.01
2017-01-13T06:43:17.750Z,999.97
2017-01-13T06:44:17.737Z,999.94
2017-01-13T06:45:17.724Z,999.93
2017-01-13T06:46:17.711Z,999.94
2017-01-13T06:47:17.697Z,999.95
2017-01-13T06:48:17.684Z,999.91
2017-01-13T06:49:17.671Z,999.9
2017-01-13T06:50:17.658Z,999.87
2017-01-13T06:51:17.645Z,999.89
2017-01-13T06:52:17.632Z,999.97
2017-01-13T06:53:17.620Z,999.9
2017-01-13T06:54:17.605Z,999.88
2017-01-13T06:55:17.593Z,999.89
2017-01-13T06:56:17.580Z,999.87
2017-01-13T06:57:17.569Z,999.85
2017-01-13T06:58:17.553Z,999.85
2017-01-13T06:59:17.541Z,999.89
2017-01-13T07:00:17.528Z,999.82
2017-01-13T07:01:17.514Z,999.8
2017-01-13T07:02:17.502Z,999.86
2017-01-13T07:03:17.489Z,999.89
2017-01-13T07:04:17.476Z,999.85
2017-01-13T07:05:17.462Z,999.87
2017-01-13T07:06:17.449Z,999.91
2017-01-13T07:07:17.436Z,999.94
2017-01-13T07:08:17.424Z,999.88
2017-01-13T07:09:17.410Z,999.9
2017-01-13T07:10:17.397Z,999.97
2017-01-13T07:11:17.385Z,1000
2017-01-13T07:12:17.370Z,999.95
2017-01-13T07:13:17.358Z,999.99
2017-01-13T07:14:17.345Z,999.87
2017-01-13T07:15:17.333Z,999.95
2017-01-13T07:16:17.319Z,999.94
2017-01-13T07:17:17.306Z,999.97
2017-01-13T07:18:17.293Z,999.93
2017-01-13T07:19:17.281Z,999.88
2017-01-13T07:20:17.269Z,999.91
2017-01-13T07:21:17.255Z,999.85
2017-01-13T07:22:17.244Z,999.84
2017-01-13T07:23:17.229Z,999.82
2017-01-13T07:24:17.216Z,999.78
2017-01-13T07:25:17.203Z,999.76
2017-01-13T07:26:17.190Z,999.75
2017-01-13T07:27:17.177Z,999.71
2017-01-13T07:28:17.164Z,999.74
2017-01-13T07:29:17.152Z,999.67
2017-01-13T07:30:17.139Z,999.65
2017-01-13T07:31:17.126Z,999.63
2017-01-13T07:32:17.112Z,999.64
2017-01-13T07:33:17.101Z,999.64
2017-01-13T07:34:17.088Z,999.66
2017-01-13T07:35:17.074Z,999.65
2017-01-13T07:36:17.061Z,999.7
2017-01-13T07:37:17.049Z,999.69
2017-01-13T07:38:17.039Z,999.69
2017-01-13T07:39:17.023Z,999.66
2017-01-13T07:40:17.011Z,999.68
2017-01-13T07:41:16.998Z,999.68
2017-01-13T07:42:16.986Z,999.65
2017-01-13T07:43:16.972Z,999.72
2017-01-13T07:44:16.960Z,999.71
2017-01-13T07:45:16.947Z,999.7
2017-01-13T07:46:16.934Z,999.69
2017-01-13T07:47:16.922Z,999.71
2017-01-13T07:48:16.909Z,999.73
2017-01-13T07:49:16.898Z,999.69
2017-01-13T07:50:16.884Z,999.7
2017-01-13T07:51:16.871Z,999.73
2017-01-13T07:52:16.859Z,999.78
2017-01-13T07:53:16.848Z,999.8
2017-01-13T07:54:16.834Z,999.81
2017-01-13T07:55:16.823Z,999.82
2017-01-13T07:56:16.809Z,999.86
2017-01-13T07:57:16.797Z,999.86
2017-01-13T07:58:16.784Z,999.85
2017-01-13T07:59:16.772Z,999.86
2017-01-13T08:00:16.759Z,999.83
2017-01-13T08:01:16.746Z,999.85
2017-01-13T08:02:16.734Z,999.81
2017-01-13T08:03:16.721Z,999.78
2017-01-13T08:04:16.709Z,999.71
2017-01-13T08:05:16.697Z,999.65
2017-01-13T08:06:16.685Z,999.68
2017-01-13T08:07:16.671Z,999.57
2017-01-13T08:08:16.659Z,999.55
2017-01-13T08:09:16.647Z,999.52
2017-01-13T08:10:16.634Z,999.46
2017-01-13T08:11:16.621Z,999.43
2017-01-13T08:12:16.609Z,999.48
2017-01-13T08:13:16.597Z,999.52
2017-01-13T08:14:16.584Z,999.43
2017-01-13T08:15:16.572Z,999.55
2017-01-13T08:16:16.560Z,999.47
2017-01-13T08:17:16.548Z,999.45
2017-01-13T08:18:16.538Z,999.39
2017-01-13T08:19:16.523Z,999.37
2017-01-13T08:20:16.511Z,999.44
2017-01-13T08:21:16.500Z,999.5
2017-01-13T08:22:16.487Z,999.52
2017-01-13T08:23:16.475Z,999.53
2017-01-13T08:24:16.464Z,999.51
2017-01-13T08:25:16.450Z,999.62
2017-01-13T08:26:16.438Z,999.61
2017-01-13T08:27:16.426Z,999.59
2017-01-13T08:28:16.415Z,999.6
2017-01-13T08:29:16.402Z,999.65
2017-01-13T08:30:16.390Z,999.54
2017-01-13T08:31:16.380Z,999.59
2017-01-13T08:32:16.366Z,999.61
2017-01-13T08:33:16.355Z,999.64
2017-01-13T08:34:16.342Z,999.61
2017-01-13T08:35:16.330Z,999.63
2017-01-13T08:36:16.317Z,999.71
2017-01-13T08:37:16.305Z,999.67
2017-01-13T08:38:16.294Z,999.68
2017-01-13T08:39:16.282Z,999.7
2017-01-13T08:40:16.270Z,999.71
2017-01-13T08:41:16.257Z,999.72
2017-01-13T08:42:16.246Z,999.76
2017-01-13T08:43:16.234Z,999.73
2017-01-13T08:44:16.221Z,999.85
2017-01-13T08:45:16.210Z,999.82
2017-01-13T08:46:16.197Z,999.87
2017-01-13T08:47:16.184Z,999.85
2017-01-13T08:48:16.180Z,999.94
2017-01-13T08:49:16.161Z,999.95
2017-01-13T08:50:16.149Z,1000.01
2017-01-13T08:51:16.138Z,999.99
2017-01-13T08:52:16.124Z,999.89
2017-01-13T08:53:16.112Z,999.88
2017-01-13T08:54:16.101Z,999.93
2017-01-13T08:55:16.089Z,999.85
2017-01-13T08:56:16.076Z,999.87
2017-01-13T08:57:16.064Z,999.86
2017-01-13T08:58:16.051Z,999.84
2017-01-13T08:59:16.039Z,999.81
2017-01-13T09:00:16.029Z,999.82
2017-01-13T09:01:16.016Z,999.75
2017-01-13T09:02:16.003Z,999.74
2017-01-13T09:03:15.991Z,999.76
2017-01-13T09:04:15.980Z,999.81
2017-01-13T09:05:15.968Z,999.85
2017-01-13T09:06:15.955Z,999.95
2017-01-13T09:07:15.943Z,999.95
2017-01-13T09:08:15.931Z,999.89
2017-01-13T09:09:15.919Z,999.92
2017-01-13T09:10:15.908Z,999.86
2017-01-13T09:11:15.896Z,999.93
2017-01-13T09:12:15.884Z,999.93
2017-01-13T09:13:15.871Z,999.99
2017-01-13T09:14:15.859Z,1000
2017-01-13T09:15:15.848Z,999.95
2017-01-13T09:16:15.837Z,999.99
2017-01-13T09:17:15.823Z,1000.05
2017-01-13T09:18:15.813Z,1000
2017-01-13T09:19:15.800Z,1000.16
2017-01-13T09:20:15.787Z,1000.17
2017-01-13T09:21:15.776Z,1000.25
2017-01-13T09:22:15.764Z,1000.34
2017-01-13T09:23:15.752Z,1000.4
2017-01-13T09:24:15.739Z,1000.38
2017-01-13T09:25:15.727Z,1000.42
2017-01-13T09:26:15.716Z,1000.43
2017-01-13T09:27:15.704Z,1000.42
2017-01-13T09:28:15.693Z,1000.37
2017-01-13T09:29:15.680Z,1000.39
2017-01-13T09:30:15.669Z,1000.44
2017-01-13T09:31:15.658Z,1000.51
2017-01-13T09:32:15.644Z,1000.52
2017-01-13T09:33:15.632Z,1000.51
2017-01-13T09:34:15.620Z,1000.6
2017-01-13T09:35:15.607Z,1000.62
2017-01-13T09:36:15.595Z,1000.76
2017-01-13T09:37:15.583Z,1000.8
2017-01-13T09:38:15.572Z,1000.84
2017-01-13T09:39:15.558Z,1000.83
2017-01-13T09:40:15.548Z,1000.88
2017-01-13T09:41:15.535Z,1000.88
2017-01-13T09:42:15.523Z,1000.9
2017-01-13T09:43:15.511Z,1000.92
2017-01-13T09:44:15.497Z,1000.9
2017-01-13T09:45:15.485Z,1000.94
2017-01-13T09:46:15.472Z,1000.93
2017-01-13T09:47:15.460Z,1000.96
2017-01-13T09:48:15.447Z,1001.06
2017-01-13T09:49:15.434Z,1001.02
2017-01-13T09:50:15.422Z,1001.1
2017-01-13T09:51:15.410Z,1001.12
2017-01-13T09:52:15.398Z,1001.14
2017-01-13T09:53:15.387Z,1001.11
2017-01-13T09:54:15.374Z,1001.13
2017-01-13T09:55:15.360Z,1001.07
2017-01-13T09:56:15.348Z,1001.12
2017-01-13T09:57:15.335Z,1001.09
2017-01-13T09:58:15.324Z,1001.09
2017-01-13T09:59:15.310Z,1000.99
2017-01-13T10:00:15.298Z,1000.93
2017-01-13T10:01:15.285Z,1000.91
2017-01-13T10:02:15.274Z,1000.91
2017-01-13T10:03:15.260Z,1000.86
2017-01-13T10:04:15.248Z,1000.82
2017-01-13T10:05:15.258Z,1000.79
2017-01-13T10:06:15.223Z,1000.66
2017-01-13T10:07:15.212Z,1000.65
2017-01-13T10:08:15.198Z,1000.61
2017-01-13T10:09:15.186Z,1000.61
2017-01-13T10:10:15.174Z,1000.6
2017-01-13T10:11:15.161Z,1000.6
2017-01-13T10:12:15.150Z,1000.64
2017-01-13T10:13:15.136Z,1000.71
2017-01-13T10:14:15.125Z,1000.74
2017-01-13T10:15:15.113Z,1000.77
2017-01-13T10:16:15.099Z,1000.73
2017-01-13T10:17:15.087Z,1000.77
2017-01-13T10:18:15.075Z,1000.77
2017-01-13T10:19:15.062Z,1000.85
2017-01-13T10:20:15.050Z,1000.9
2017-01-13T10:21:15.038Z,1000.9
2017-01-13T10:22:15.026Z,1000.96
2017-01-13T10:23:15.014Z,1000.84
2017-01-13T10:24:15.004Z,1000.88
2017-01-13T10:25:14.991Z,1000.91
2017-01-13T10:26:14.977Z,1000.93
2017-01-13T10:27:14.965Z,1001
2017-01-13T10:28:14.954Z,1001.02
2017-01-13T10:29:14.941Z,1001.06
2017-01-13T10:30:14.928Z,1001.07
2017-01-13T10:31:14.916Z,1001.13
2017-01-13T10:32:14.904Z,1001.17
2017-01-13T10:33:14.892Z,1001.16
2017-01-13T10:34:14.880Z,1001.19
2017-01-13T10:35:14.868Z,1001.18
2017-01-13T10:36:14.856Z,1001.2
2017-01-13T10:37:14.843Z,1001.23
2017-01-13T10:38:14.834Z,1001.23
2017-01-13T10:39:14.820Z,1001.31
2017-01-13T10:40:14.808Z,1001.25
2017-01-13T10:41:14.795Z,1001.3
2017-01-13T10:42:14.783Z,1001.29
2017-01-13T10:43:14.773Z,1001.3
2017-01-13T10:44:14.759Z,1001.27
2017-01-13T10:45:14.747Z,1001.23
2017-01-13T10:46:14.735Z,1001.26
2017-01-13T10:47:14.727Z,1001.28
2017-01-13T10:48:14.710Z,1001.25
2017-01-13T10:49:14.698Z,1001.25
2017-01-13T10:50:14.686Z,1001.21
2017-01-13T10:51:14.674Z,1001.18
2017-01-13T10:52:14.661Z,1001.17
2017-01-13T10:53:14.652Z,1001.15
2017-01-13T10:54:14.638Z,1001.15
2017-01-13T10:55:14.625Z,1001.05
2017-01-13T10:56:14.613Z,1001.12
2017-01-13T10:57:14.602Z,1001.11
2017-01-13T10:58:14.590Z,1001.12
2017-01-13T10:59:14.578Z,1001.05
2017-01-13T11:00:14.565Z,1001.08
2017-01-13T11:01:14.554Z,1001.02
2017-01-13T11:02:14.542Z,1001.03
2017-01-13T11:03:14.531Z,1001.02
2017-01-13T11:04:14.519Z,1001.07
2017-01-13T11:05:14.507Z,1001.09
2017-01-13T11:06:14.495Z,1001.12
2017-01-13T11:07:14.483Z,1001.11
2017-01-13T11:08:14.472Z,1001.16
2017-01-13T11:09:14.460Z,1001.17
2017-01-13T11:10:14.448Z,1001.2
2017-01-13T11:11:14.436Z,1001.29
2017-01-13T11:12:14.437Z,1001.28
2017-01-13T11:13:14.412Z,1001.26
2017-01-13T11:14:14.401Z,1001.23
2017-01-13T11:15:14.389Z,1001.22
2017-01-13T11:16:14.378Z,1001.25
2017-01-13T11:17:14.365Z,1001.25
2017-01-13T11:18:14.354Z,1001.21
2017-01-13T11:19:14.342Z,1001.21
2017-01-13T11:20:14.331Z,1001.22
2017-01-13T11:21:14.318Z,1001.24
2017-01-13T11:22:14.309Z,1001.27
2017-01-13T11:23:14.296Z,1001.26
2017-01-13T11:24:14.283Z,1001.3
2017-01-13T11:25:14.272Z,1001.35
2017-01-13T11:26:14.260Z,1001.38
2017-01-13T11:27:14.249Z,1001.38
2017-01-13T11:28:14.236Z,1001.42
2017-01-13T11:29:14.225Z,1001.42
2017-01-13T11:30:14.216Z,1001.4
2017-01-13T11:31:14.202Z,1001.41
2017-01-13T11:32:14.190Z,1001.41
2017-01-13T11:33:14.179Z,1001.4
2017-01-13T11:34:14.167Z,1001.39
2017-01-13T11:35:14.155Z,1001.4
2017-01-13T11:36:14.143Z,1001.44
2017-01-13T11:37:14.132Z,1001.45
2017-01-13T11:38:14.121Z,1001.45
2017-01-13T11:39:14.108Z,1001.52
2017-01-13T11:40:14.097Z,1001.49
2017-01-13T11:41:14.086Z,1001.54
2017-01-13T11:42:14.075Z,1001.59
2017-01-13T11:43:14.062Z,1001.59
2017-01-13T11:44:14.051Z,1001.61
2017-01-13T11:45:14.040Z,1001.57
2017-01-13T11:46:14.027Z,1001.48
2017-01-13T11:47:14.016Z,1001.47
2017-01-13T11:48:14.005Z,1001.4
2017-01-13T11:49:13.995Z,1001.38
2017-01-13T11:50:13.981Z,1001.34
2017-01-13T11:51:13.970Z,1001.37
2017-01-13T11:52:13.959Z,1001.31
2017-01-13T11:53:13.948Z,1001.35
2017-01-13T11:54:13.936Z,1001.34
2017-01-13T11:55:13.924Z,1001.39
2017-01-13T11:56:13.914Z,1001.34
2017-01-13T11:57:13.901Z,1001.35
2017-01-13T11:58:13.890Z,1001.39
2017-01-13T11:59:13.879Z,1001.27
2017-01-13T12:00:13.870Z,1001.33
2017-01-13T12:01:13.856Z,1001.3
2017-01-13T12:02:13.846Z,1001.36
2017-01-13T12:03:13.835Z,1001.37
2017-01-13T12:04:13.824Z,1001.45
2017-01-13T12:05:13.812Z,1001.52
2017-01-13T12:06:13.801Z,1001.65
2017-01-13T12:07:13.790Z,1001.62
2017-01-13T12:08:13.779Z,1001.7
2017-01-13T12:09:13.767Z,1001.79
2017-01-13T12:10:13.757Z,1001.87
2017-01-13T12:11:13.745Z,1001.91
2017-01-13T12:12:13.734Z,1001.97
2017-01-13T12:13:13.723Z,1002.06